sensor_id;sensor_type;location;lat;lon;timestamp;temperature;humidity
5962;DHT22;3007;50.770;0.250;2023-03-11T00:01:42;1.00;99.90
5962;DHT22;3007;50.770;0.250;2023-03-11T00:04:11;1.00;99.90
5962;DHT22;3007;50.770;0.250;2023-03-11T00:06:38;1.00;99.90
5962;DHT22;3007;50.770;0.250;2023-03-11T00:09:04;1.00;99.90
5962;DHT22;3007;50.770;0.250;2023-03-11T00:11:32;1.00;99.90
5962;DHT22;3007;50.770;0.250;2023-03-11T00:13:59;0.90;99.90
5962;DHT22;3007;50.770;0.250;2023-03-11T00:16:26;0.90;99.90
5962;DHT22;3007;50.770;0.250;2023-03-11T00:18:53;0.90;99.90
5962;DHT22;3007;50.770;0.250;2023-03-11T00:21:21;0.90;99.90
5962;DHT22;3007;50.770;0.250;2023-03-11T00:23:48;0.90;99.90
5962;DHT22;3007;50.770;0.250;2023-03-11T00:26:15;0.90;99.90
5962;DHT22;3007;50.770;0.250;2023-03-11T00:28:42;0.90;99.90
5962;DHT22;3007;50.770;0.250;2023-03-11T00:31:11;1.00;99.90
5962;DHT22;3007;50.770;0.250;2023-03-11T00:33:38;1.10;99.90
5962;DHT22;3007;50.770;0.250;2023-03-11T00:36:06;1.20;99.90
5962;DHT22;3007;50.770;0.250;2023-03-11T00:38:34;1.30;99.90
5962;DHT22;3007;50.770;0.250;2023-03-11T00:41:01;1.30;99.90
5962;DHT22;3007;50.770;0.250;2023-03-11T00:43:28;1.30;99.90
5962;DHT22;3007;50.770;0.250;2023-03-11T00:45:55;1.40;99.90
5962;DHT22;3007;50.770;0.250;2023-03-11T00:48:22;1.40;99.90
5962;DHT22;3007;50.770;0.250;2023-03-11T00:50:48;1.40;99.90
5962;DHT22;3007;50.770;0.250;2023-03-11T00:53:16;1.40;99.90
5962;DHT22;3007;50.770;0.250;2023-03-11T00:55:44;1.40;99.90
5962;DHT22;3007;50.770;0.250;2023-03-11T00:58:11;1.30;99.90
5962;DHT22;3007;50.770;0.250;2023-03-11T01:00:38;1.30;99.90
5962;DHT22;3007;50.770;0.250;2023-03-11T01:03:05;1.30;99.90
5962;DHT22;3007;50.770;0.250;2023-03-11T01:05:33;1.20;99.90
5962;DHT22;3007;50.770;0.250;2023-03-11T01:08:01;1.20;99.90
5962;DHT22;3007;50.770;0.250;2023-03-11T01:10:29;1.20;99.90
5962;DHT22;3007;50.770;0.250;2023-03-11T01:12:58;1.10;99.90
5962;DHT22;3007;50.770;0.250;2023-03-11T01:15:28;1.10;99.90
5962;DHT22;3007;50.770;0.250;2023-03-11T01:17:55;1.10;99.90
5962;DHT22;3007;50.770;0.250;2023-03-11T01:20:23;1.10;99.90
5962;DHT22;3007;50.770;0.250;2023-03-11T01:22:50;1.10;99.90
5962;DHT22;3007;50.770;0.250;2023-03-11T01:25:18;1.10;99.90
5962;DHT22;3007;50.770;0.250;2023-03-11T01:27:45;1.10;99.90
5962;DHT22;3007;50.770;0.250;2023-03-11T01:30:16;1.20;99.90
5962;DHT22;3007;50.770;0.250;2023-03-11T01:32:43;1.20;99.90
5962;DHT22;3007;50.770;0.250;2023-03-11T01:35:11;1.20;99.90
5962;DHT22;3007;50.770;0.250;2023-03-11T01:37:38;1.30;99.90
5962;DHT22;3007;50.770;0.250;2023-03-11T01:40:07;1.30;99.90
5962;DHT22;3007;50.770;0.250;2023-03-11T01:42:34;1.20;99.90
5962;DHT22;3007;50.770;0.250;2023-03-11T01:45:01;1.20;99.90
5962;DHT22;3007;50.770;0.250;2023-03-11T01:47:38;1.20;99.90
5962;DHT22;3007;50.770;0.250;2023-03-11T01:50:10;1.10;99.90
5962;DHT22;3007;50.770;0.250;2023-03-11T01:52:39;1.10;99.90
5962;DHT22;3007;50.770;0.250;2023-03-11T01:55:08;1.10;99.90
5962;DHT22;3007;50.770;0.250;2023-03-11T01:57:37;1.10;99.90
5962;DHT22;3007;50.770;0.250;2023-03-11T02:00:08;1.10;99.90
5962;DHT22;3007;50.770;0.250;2023-03-11T02:02:41;1.10;99.90
5962;DHT22;3007;50.770;0.250;2023-03-11T02:05:08;1.10;99.90
5962;DHT22;3007;50.770;0.250;2023-03-11T02:07:37;1.00;99.90
5962;DHT22;3007;50.770;0.250;2023-03-11T02:10:06;1.00;99.90
5962;DHT22;3007;50.770;0.250;2023-03-11T02:12:35;1.00;99.90
5962;DHT22;3007;50.770;0.250;2023-03-11T02:15:04;0.90;99.90
5962;DHT22;3007;50.770;0.250;2023-03-11T02:17:32;0.80;99.90
5962;DHT22;3007;50.770;0.250;2023-03-11T02:20:14;0.80;99.90
5962;DHT22;3007;50.770;0.250;2023-03-11T02:22:42;0.70;99.90
5962;DHT22;3007;50.770;0.250;2023-03-11T02:25:15;0.60;99.90
5962;DHT22;3007;50.770;0.250;2023-03-11T02:27:48;0.60;99.90
5962;DHT22;3007;50.770;0.250;2023-03-11T02:30:17;0.60;99.90
5962;DHT22;3007;50.770;0.250;2023-03-11T02:32:45;0.60;99.90
5962;DHT22;3007;50.770;0.250;2023-03-11T02:35:13;0.50;99.90
5962;DHT22;3007;50.770;0.250;2023-03-11T02:37:44;0.50;99.90
5962;DHT22;3007;50.770;0.250;2023-03-11T02:40:37;0.50;99.90
5962;DHT22;3007;50.770;0.250;2023-03-11T02:43:08;0.50;99.90
5962;DHT22;3007;50.770;0.250;2023-03-11T02:45:37;0.50;99.90
5962;DHT22;3007;50.770;0.250;2023-03-11T02:48:08;0.50;99.90
5962;DHT22;3007;50.770;0.250;2023-03-11T02:50:36;0.40;99.90
5962;DHT22;3007;50.770;0.250;2023-03-11T02:53:03;0.40;99.90
5962;DHT22;3007;50.770;0.250;2023-03-11T02:55:30;0.40;99.90
5962;DHT22;3007;50.770;0.250;2023-03-11T02:58:00;0.40;99.90
5962;DHT22;3007;50.770;0.250;2023-03-11T03:00:28;0.40;99.90
5962;DHT22;3007;50.770;0.250;2023-03-11T03:02:55;0.30;99.90
5962;DHT22;3007;50.770;0.250;2023-03-11T03:05:22;0.40;99.90
5962;DHT22;3007;50.770;0.250;2023-03-11T03:07:50;0.30;99.90
5962;DHT22;3007;50.770;0.250;2023-03-11T03:10:19;0.30;99.90
5962;DHT22;3007;50.770;0.250;2023-03-11T03:12:46;0.30;99.90
5962;DHT22;3007;50.770;0.250;2023-03-11T03:15:14;0.30;99.90
5962;DHT22;3007;50.770;0.250;2023-03-11T03:17:43;0.20;99.90
5962;DHT22;3007;50.770;0.250;2023-03-11T03:20:11;0.20;99.90
5962;DHT22;3007;50.770;0.250;2023-03-11T03:22:40;0.20;99.90
5962;DHT22;3007;50.770;0.250;2023-03-11T03:25:08;0.20;99.90
5962;DHT22;3007;50.770;0.250;2023-03-11T03:27:37;0.10;99.90
5962;DHT22;3007;50.770;0.250;2023-03-11T03:30:06;0.10;99.90
5962;DHT22;3007;50.770;0.250;2023-03-11T03:32:33;0.10;99.90
5962;DHT22;3007;50.770;0.250;2023-03-11T03:35:02;0.10;99.90
5962;DHT22;3007;50.770;0.250;2023-03-11T03:37:31;0.10;99.90
5962;DHT22;3007;50.770;0.250;2023-03-11T03:39:58;0.10;99.90
5962;DHT22;3007;50.770;0.250;2023-03-11T03:42:26;0.10;99.90
5962;DHT22;3007;50.770;0.250;2023-03-11T03:44:53;0.10;99.90
5962;DHT22;3007;50.770;0.250;2023-03-11T03:47:20;0.10;99.90
5962;DHT22;3007;50.770;0.250;2023-03-11T03:49:47;0.10;99.90
5962;DHT22;3007;50.770;0.250;2023-03-11T03:52:16;0.10;99.90
5962;DHT22;3007;50.770;0.250;2023-03-11T03:54:43;0.10;99.90
5962;DHT22;3007;50.770;0.250;2023-03-11T03:57:10;0.10;99.90
5962;DHT22;3007;50.770;0.250;2023-03-11T03:59:37;0.10;99.90
5962;DHT22;3007;50.770;0.250;2023-03-11T04:02:04;0.00;99.90
5962;DHT22;3007;50.770;0.250;2023-03-11T04:04:31;0.00;99.90
5962;DHT22;3007;50.770;0.250;2023-03-11T04:06:58;0.00;99.90
5962;DHT22;3007;50.770;0.250;2023-03-11T04:09:26;0.00;99.90
5962;DHT22;3007;50.770;0.250;2023-03-11T04:11:53;-0.10;99.90
5962;DHT22;3007;50.770;0.250;2023-03-11T04:14:20;-0.10;99.90
5962;DHT22;3007;50.770;0.250;2023-03-11T04:16:47;-0.10;99.90
5962;DHT22;3007;50.770;0.250;2023-03-11T04:19:14;0.00;99.90
5962;DHT22;3007;50.770;0.250;2023-03-11T04:21:41;0.00;99.90
5962;DHT22;3007;50.770;0.250;2023-03-11T04:24:08;0.00;99.90
5962;DHT22;3007;50.770;0.250;2023-03-11T04:26:37;0.00;99.90
5962;DHT22;3007;50.770;0.250;2023-03-11T04:29:04;0.10;99.90
5962;DHT22;3007;50.770;0.250;2023-03-11T04:31:31;0.10;99.90
5962;DHT22;3007;50.770;0.250;2023-03-11T04:33:57;0.20;99.90
5962;DHT22;3007;50.770;0.250;2023-03-11T04:36:24;0.20;99.90
5962;DHT22;3007;50.770;0.250;2023-03-11T04:38:51;0.30;99.90
5962;DHT22;3007;50.770;0.250;2023-03-11T04:41:18;0.30;99.90
5962;DHT22;3007;50.770;0.250;2023-03-11T04:43:47;0.40;99.90
5962;DHT22;3007;50.770;0.250;2023-03-11T04:46:14;0.40;99.90
5962;DHT22;3007;50.770;0.250;2023-03-11T04:48:41;0.30;99.90
5962;DHT22;3007;50.770;0.250;2023-03-11T04:51:07;0.30;99.90
5962;DHT22;3007;50.770;0.250;2023-03-11T04:53:35;0.20;99.90
5962;DHT22;3007;50.770;0.250;2023-03-11T04:56:02;0.20;99.90
5962;DHT22;3007;50.770;0.250;2023-03-11T04:58:29;0.20;99.90
5962;DHT22;3007;50.770;0.250;2023-03-11T05:00:57;0.20;99.90
5962;DHT22;3007;50.770;0.250;2023-03-11T05:03:24;0.20;99.90
5962;DHT22;3007;50.770;0.250;2023-03-11T05:05:51;0.20;99.90
5962;DHT22;3007;50.770;0.250;2023-03-11T05:08:21;0.20;99.90
5962;DHT22;3007;50.770;0.250;2023-03-11T05:10:49;0.30;99.90
5962;DHT22;3007;50.770;0.250;2023-03-11T05:13:17;0.30;99.90
5962;DHT22;3007;50.770;0.250;2023-03-11T05:15:44;0.40;99.90
5962;DHT22;3007;50.770;0.250;2023-03-11T05:18:13;0.40;99.90
5962;DHT22;3007;50.770;0.250;2023-03-11T05:20:40;0.50;99.90
5962;DHT22;3007;50.770;0.250;2023-03-11T05:23:07;0.50;99.90
5962;DHT22;3007;50.770;0.250;2023-03-11T05:25:34;0.50;99.90
5962;DHT22;3007;50.770;0.250;2023-03-11T05:28:01;0.60;99.90
5962;DHT22;3007;50.770;0.250;2023-03-11T05:30:28;0.60;99.90
5962;DHT22;3007;50.770;0.250;2023-03-11T05:32:55;0.70;99.90
5962;DHT22;3007;50.770;0.250;2023-03-11T05:35:23;0.70;99.90
5962;DHT22;3007;50.770;0.250;2023-03-11T05:37:50;0.70;99.90
5962;DHT22;3007;50.770;0.250;2023-03-11T05:40:18;0.70;99.90
5962;DHT22;3007;50.770;0.250;2023-03-11T05:42:45;0.80;99.90
5962;DHT22;3007;50.770;0.250;2023-03-11T05:45:13;0.80;99.90
5962;DHT22;3007;50.770;0.250;2023-03-11T05:47:39;0.80;99.90
5962;DHT22;3007;50.770;0.250;2023-03-11T05:50:08;0.80;99.90
5962;DHT22;3007;50.770;0.250;2023-03-11T05:52:37;0.80;99.90
5962;DHT22;3007;50.770;0.250;2023-03-11T05:55:04;0.80;99.90
5962;DHT22;3007;50.770;0.250;2023-03-11T05:57:31;0.80;99.90
5962;DHT22;3007;50.770;0.250;2023-03-11T05:59:58;0.80;99.90
5962;DHT22;3007;50.770;0.250;2023-03-11T06:02:25;0.80;99.90
5962;DHT22;3007;50.770;0.250;2023-03-11T06:04:52;0.80;99.90
5962;DHT22;3007;50.770;0.250;2023-03-11T06:07:19;0.90;99.90
5962;DHT22;3007;50.770;0.250;2023-03-11T06:09:50;0.90;99.90
5962;DHT22;3007;50.770;0.250;2023-03-11T06:12:17;0.90;99.90
5962;DHT22;3007;50.770;0.250;2023-03-11T06:14:44;1.00;99.90
5962;DHT22;3007;50.770;0.250;2023-03-11T06:17:11;1.00;99.90
5962;DHT22;3007;50.770;0.250;2023-03-11T06:19:37;1.00;99.90
5962;DHT22;3007;50.770;0.250;2023-03-11T06:22:04;1.10;99.90
5962;DHT22;3007;50.770;0.250;2023-03-11T06:24:31;1.00;99.90
5962;DHT22;3007;50.770;0.250;2023-03-11T06:27:00;1.10;99.90
5962;DHT22;3007;50.770;0.250;2023-03-11T06:29:27;1.10;99.90
5962;DHT22;3007;50.770;0.250;2023-03-11T06:31:54;1.10;99.90
5962;DHT22;3007;50.770;0.250;2023-03-11T06:34:21;1.10;99.90
5962;DHT22;3007;50.770;0.250;2023-03-11T06:36:49;1.20;99.90
5962;DHT22;3007;50.770;0.250;2023-03-11T06:39:16;1.30;99.90
5962;DHT22;3007;50.770;0.250;2023-03-11T06:41:43;1.30;99.90
5962;DHT22;3007;50.770;0.250;2023-03-11T06:44:11;1.30;99.90
5962;DHT22;3007;50.770;0.250;2023-03-11T06:46:38;1.30;99.90
5962;DHT22;3007;50.770;0.250;2023-03-11T06:49:05;1.30;99.90
5962;DHT22;3007;50.770;0.250;2023-03-11T06:51:32;1.30;99.90
5962;DHT22;3007;50.770;0.250;2023-03-11T06:53:59;1.30;99.90
5962;DHT22;3007;50.770;0.250;2023-03-11T06:56:26;1.30;99.90
5962;DHT22;3007;50.770;0.250;2023-03-11T06:58:53;1.30;99.90
5962;DHT22;3007;50.770;0.250;2023-03-11T07:01:22;1.30;99.90
5962;DHT22;3007;50.770;0.250;2023-03-11T07:03:50;1.40;99.90
5962;DHT22;3007;50.770;0.250;2023-03-11T07:06:19;1.40;99.90
5962;DHT22;3007;50.770;0.250;2023-03-11T07:08:47;1.60;99.90
5962;DHT22;3007;50.770;0.250;2023-03-11T07:11:17;1.60;99.90
5962;DHT22;3007;50.770;0.250;2023-03-11T07:13:44;1.70;99.90
5962;DHT22;3007;50.770;0.250;2023-03-11T07:16:13;1.80;99.90
5962;DHT22;3007;50.770;0.250;2023-03-11T07:18:43;1.90;99.90
5962;DHT22;3007;50.770;0.250;2023-03-11T07:21:12;2.10;99.90
5962;DHT22;3007;50.770;0.250;2023-03-11T07:23:39;2.20;99.90
5962;DHT22;3007;50.770;0.250;2023-03-11T07:26:07;2.20;99.90
5962;DHT22;3007;50.770;0.250;2023-03-11T07:28:34;2.40;99.90
5962;DHT22;3007;50.770;0.250;2023-03-11T07:31:06;2.50;99.90
5962;DHT22;3007;50.770;0.250;2023-03-11T07:33:34;2.60;99.90
5962;DHT22;3007;50.770;0.250;2023-03-11T07:36:06;2.70;99.90
5962;DHT22;3007;50.770;0.250;2023-03-11T07:38:34;2.80;99.90
5962;DHT22;3007;50.770;0.250;2023-03-11T07:41:01;2.90;99.90
5962;DHT22;3007;50.770;0.250;2023-03-11T07:43:30;2.90;99.90
5962;DHT22;3007;50.770;0.250;2023-03-11T07:46:05;2.90;99.90
5962;DHT22;3007;50.770;0.250;2023-03-11T07:48:34;3.00;99.90
5962;DHT22;3007;50.770;0.250;2023-03-11T07:51:02;3.00;99.90
5962;DHT22;3007;50.770;0.250;2023-03-11T07:53:31;3.00;99.90
5962;DHT22;3007;50.770;0.250;2023-03-11T07:55:59;2.90;99.90
5962;DHT22;3007;50.770;0.250;2023-03-11T07:58:26;3.00;99.90
5962;DHT22;3007;50.770;0.250;2023-03-11T08:00:53;3.00;99.90
5962;DHT22;3007;50.770;0.250;2023-03-11T08:03:21;3.00;99.90
5962;DHT22;3007;50.770;0.250;2023-03-11T08:05:49;3.10;99.90
5962;DHT22;3007;50.770;0.250;2023-03-11T08:08:16;3.10;99.90
5962;DHT22;3007;50.770;0.250;2023-03-11T08:10:44;3.10;99.90
5962;DHT22;3007;50.770;0.250;2023-03-11T08:13:11;3.20;99.90
5962;DHT22;3007;50.770;0.250;2023-03-11T08:15:38;3.30;99.90
5962;DHT22;3007;50.770;0.250;2023-03-11T08:18:05;3.40;99.90
5962;DHT22;3007;50.770;0.250;2023-03-11T08:20:32;3.40;99.90
5962;DHT22;3007;50.770;0.250;2023-03-11T08:23:00;3.60;99.90
5962;DHT22;3007;50.770;0.250;2023-03-11T08:25:27;3.60;99.90
5962;DHT22;3007;50.770;0.250;2023-03-11T08:27:55;3.70;99.90
5962;DHT22;3007;50.770;0.250;2023-03-11T08:30:23;3.90;99.90
5962;DHT22;3007;50.770;0.250;2023-03-11T08:32:50;4.00;99.90
5962;DHT22;3007;50.770;0.250;2023-03-11T08:35:17;4.10;99.90
5962;DHT22;3007;50.770;0.250;2023-03-11T08:37:44;4.30;99.90
5962;DHT22;3007;50.770;0.250;2023-03-11T08:40:11;4.40;99.90
5962;DHT22;3007;50.770;0.250;2023-03-11T08:42:39;4.60;99.90
5962;DHT22;3007;50.770;0.250;2023-03-11T08:45:09;4.60;99.90
5962;DHT22;3007;50.770;0.250;2023-03-11T08:47:37;4.80;99.90
5962;DHT22;3007;50.770;0.250;2023-03-11T08:50:05;4.90;99.90
5962;DHT22;3007;50.770;0.250;2023-03-11T08:52:32;5.10;99.90
5962;DHT22;3007;50.770;0.250;2023-03-11T08:54:59;5.20;99.90
5962;DHT22;3007;50.770;0.250;2023-03-11T08:57:26;5.30;99.90
5962;DHT22;3007;50.770;0.250;2023-03-11T08:59:53;5.40;99.90
5962;DHT22;3007;50.770;0.250;2023-03-11T09:02:24;5.50;99.90
5962;DHT22;3007;50.770;0.250;2023-03-11T09:04:51;5.60;99.90
5962;DHT22;3007;50.770;0.250;2023-03-11T09:07:18;5.70;99.90
5962;DHT22;3007;50.770;0.250;2023-03-11T09:09:45;5.70;99.90
5962;DHT22;3007;50.770;0.250;2023-03-11T09:12:11;5.80;99.90
5962;DHT22;3007;50.770;0.250;2023-03-11T09:14:42;5.90;99.90
5962;DHT22;3007;50.770;0.250;2023-03-11T09:17:09;5.90;99.90
5962;DHT22;3007;50.770;0.250;2023-03-11T09:19:38;6.10;99.90
5962;DHT22;3007;50.770;0.250;2023-03-11T09:22:05;6.20;99.90
5962;DHT22;3007;50.770;0.250;2023-03-11T09:24:33;6.30;99.90
5962;DHT22;3007;50.770;0.250;2023-03-11T09:27:01;6.30;99.90
5962;DHT22;3007;50.770;0.250;2023-03-11T09:29:28;6.30;99.90
5962;DHT22;3007;50.770;0.250;2023-03-11T09:31:56;6.40;99.90
5962;DHT22;3007;50.770;0.250;2023-03-11T09:34:23;6.40;99.90
5962;DHT22;3007;50.770;0.250;2023-03-11T09:36:51;6.50;99.90
5962;DHT22;3007;50.770;0.250;2023-03-11T09:39:18;6.50;99.90
5962;DHT22;3007;50.770;0.250;2023-03-11T09:41:51;6.60;99.90
5962;DHT22;3007;50.770;0.250;2023-03-11T09:44:23;6.60;99.90
5962;DHT22;3007;50.770;0.250;2023-03-11T09:47:14;6.70;99.90
5962;DHT22;3007;50.770;0.250;2023-03-11T09:49:58;6.80;99.90
5962;DHT22;3007;50.770;0.250;2023-03-11T09:52:35;6.90;99.90
5962;DHT22;3007;50.770;0.250;2023-03-11T09:55:06;6.90;99.90
5962;DHT22;3007;50.770;0.250;2023-03-11T09:57:43;7.00;99.90
5962;DHT22;3007;50.770;0.250;2023-03-11T10:00:11;7.00;99.90
5962;DHT22;3007;50.770;0.250;2023-03-11T10:02:39;7.00;99.90
5962;DHT22;3007;50.770;0.250;2023-03-11T10:05:11;7.10;99.90
5962;DHT22;3007;50.770;0.250;2023-03-11T10:07:44;7.10;99.90
5962;DHT22;3007;50.770;0.250;2023-03-11T10:10:14;7.10;99.90
5962;DHT22;3007;50.770;0.250;2023-03-11T10:12:48;7.20;99.90
5962;DHT22;3007;50.770;0.250;2023-03-11T10:15:21;7.20;99.90
5962;DHT22;3007;50.770;0.250;2023-03-11T10:18:00;7.30;99.90
5962;DHT22;3007;50.770;0.250;2023-03-11T10:20:37;7.30;99.90
5962;DHT22;3007;50.770;0.250;2023-03-11T10:23:17;7.40;99.90
5962;DHT22;3007;50.770;0.250;2023-03-11T10:25:52;7.50;99.90
5962;DHT22;3007;50.770;0.250;2023-03-11T10:28:23;7.50;99.90
5962;DHT22;3007;50.770;0.250;2023-03-11T10:30:54;7.50;99.90
5962;DHT22;3007;50.770;0.250;2023-03-11T10:33:27;7.60;99.90
5962;DHT22;3007;50.770;0.250;2023-03-11T10:35:57;7.50;99.90
5962;DHT22;3007;50.770;0.250;2023-03-11T10:38:29;7.50;99.90
5962;DHT22;3007;50.770;0.250;2023-03-11T10:41:00;7.60;99.90
5962;DHT22;3007;50.770;0.250;2023-03-11T10:43:32;7.60;99.90
5962;DHT22;3007;50.770;0.250;2023-03-11T10:46:04;7.60;99.90
5962;DHT22;3007;50.770;0.250;2023-03-11T10:48:33;7.60;99.90
5962;DHT22;3007;50.770;0.250;2023-03-11T10:51:02;7.70;99.90
5962;DHT22;3007;50.770;0.250;2023-03-11T10:53:31;7.70;99.90
5962;DHT22;3007;50.770;0.250;2023-03-11T10:55:58;7.60;99.90
5962;DHT22;3007;50.770;0.250;2023-03-11T10:58:27;7.70;99.90
5962;DHT22;3007;50.770;0.250;2023-03-11T11:01:03;7.70;99.90
5962;DHT22;3007;50.770;0.250;2023-03-11T11:03:32;7.80;99.90
5962;DHT22;3007;50.770;0.250;2023-03-11T11:06:01;7.80;99.90
5962;DHT22;3007;50.770;0.250;2023-03-11T11:08:30;7.80;99.90
5962;DHT22;3007;50.770;0.250;2023-03-11T11:10:59;7.90;99.90
5962;DHT22;3007;50.770;0.250;2023-03-11T11:13:27;8.00;99.90
5962;DHT22;3007;50.770;0.250;2023-03-11T11:16:00;7.90;99.90
5962;DHT22;3007;50.770;0.250;2023-03-11T11:18:30;7.90;99.90
5962;DHT22;3007;50.770;0.250;2023-03-11T11:21:01;7.80;99.90
5962;DHT22;3007;50.770;0.250;2023-03-11T11:23:37;7.80;99.90
5962;DHT22;3007;50.770;0.250;2023-03-11T11:26:07;7.70;99.90
5962;DHT22;3007;50.770;0.250;2023-03-11T11:28:40;7.60;93.00
5962;DHT22;3007;50.770;0.250;2023-03-11T11:31:21;7.50;99.90
5962;DHT22;3007;50.770;0.250;2023-03-11T11:33:50;7.50;99.90
5962;DHT22;3007;50.770;0.250;2023-03-11T11:36:18;7.40;99.90
5962;DHT22;3007;50.770;0.250;2023-03-11T11:38:47;7.40;99.90
5962;DHT22;3007;50.770;0.250;2023-03-11T11:41:17;7.40;99.90
5962;DHT22;3007;50.770;0.250;2023-03-11T11:43:48;7.30;99.90
5962;DHT22;3007;50.770;0.250;2023-03-11T11:46:21;7.30;99.90
5962;DHT22;3007;50.770;0.250;2023-03-11T11:48:56;7.30;99.90
5962;DHT22;3007;50.770;0.250;2023-03-11T11:51:29;7.30;99.90
5962;DHT22;3007;50.770;0.250;2023-03-11T11:54:01;7.30;99.90
5962;DHT22;3007;50.770;0.250;2023-03-11T11:56:29;7.20;99.90
5962;DHT22;3007;50.770;0.250;2023-03-11T11:58:56;7.20;99.90
5962;DHT22;3007;50.770;0.250;2023-03-11T12:01:32;7.10;99.90
5962;DHT22;3007;50.770;0.250;2023-03-11T12:04:26;7.10;99.90
5962;DHT22;3007;50.770;0.250;2023-03-11T12:09:51;7.00;99.90
5962;DHT22;3007;50.770;0.250;2023-03-11T12:12:32;7.00;99.90
5962;DHT22;3007;50.770;0.250;2023-03-11T12:15:11;7.00;99.90
5962;DHT22;3007;50.770;0.250;2023-03-11T12:17:42;7.00;99.90
5962;DHT22;3007;50.770;0.250;2023-03-11T12:20:13;7.10;99.90
5962;DHT22;3007;50.770;0.250;2023-03-11T12:23:10;7.10;99.90
5962;DHT22;3007;50.770;0.250;2023-03-11T12:25:51;7.10;99.90
5962;DHT22;3007;50.770;0.250;2023-03-11T12:28:23;7.10;99.90
5962;DHT22;3007;50.770;0.250;2023-03-11T12:30:58;7.00;99.90
5962;DHT22;3007;50.770;0.250;2023-03-11T12:33:30;7.10;99.90
5962;DHT22;3007;50.770;0.250;2023-03-11T12:35:59;7.10;99.90
5962;DHT22;3007;50.770;0.250;2023-03-11T12:38:30;7.10;99.90
5962;DHT22;3007;50.770;0.250;2023-03-11T12:41:03;7.10;92.80
5962;DHT22;3007;50.770;0.250;2023-03-11T12:52:54;7.10;79.10
5962;DHT22;3007;50.770;0.250;2023-03-11T12:55:30;7.10;94.80
5962;DHT22;3007;50.770;0.250;2023-03-11T13:00:54;7.20;99.90
5962;DHT22;3007;50.770;0.250;2023-03-11T13:03:38;7.20;97.30
5962;DHT22;3007;50.770;0.250;2023-03-11T13:06:20;7.40;99.90
5962;DHT22;3007;50.770;0.250;2023-03-11T13:08:50;7.40;95.50
5962;DHT22;3007;50.770;0.250;2023-03-11T13:11:33;7.50;93.60
5962;DHT22;3007;50.770;0.250;2023-03-11T13:14:22;7.60;89.00
5962;DHT22;3007;50.770;0.250;2023-03-11T13:16:52;7.50;63.60
5962;DHT22;3007;50.770;0.250;2023-03-11T13:22:41;7.70;79.50
5962;DHT22;3007;50.770;0.250;2023-03-11T13:25:36;7.70;48.40
5962;DHT22;3007;50.770;0.250;2023-03-11T13:28:34;7.80;73.80
5962;DHT22;3007;50.770;0.250;2023-03-11T13:34:14;7.90;90.30
5962;DHT22;3007;50.770;0.250;2023-03-11T13:36:50;8.00;90.60
5962;DHT22;3007;50.770;0.250;2023-03-11T13:39:41;8.10;90.50
5962;DHT22;3007;50.770;0.250;2023-03-11T13:42:19;8.10;94.70
5962;DHT22;3007;50.770;0.250;2023-03-11T13:44:47;8.20;86.80
5962;DHT22;3007;50.770;0.250;2023-03-11T13:47:17;8.20;78.60
5962;DHT22;3007;50.770;0.250;2023-03-11T13:49:49;8.30;84.00
5962;DHT22;3007;50.770;0.250;2023-03-11T13:52:24;8.20;75.50
5962;DHT22;3007;50.770;0.250;2023-03-11T13:54:57;8.20;92.30
5962;DHT22;3007;50.770;0.250;2023-03-11T13:57:27;8.30;97.70
5962;DHT22;3007;50.770;0.250;2023-03-11T13:59:56;8.40;99.60
5962;DHT22;3007;50.770;0.250;2023-03-11T14:02:25;8.40;88.40
5962;DHT22;3007;50.770;0.250;2023-03-11T14:04:56;8.50;57.00
5962;DHT22;3007;50.770;0.250;2023-03-11T14:07:27;8.50;78.80
5962;DHT22;3007;50.770;0.250;2023-03-11T14:10:27;8.50;87.20
5962;DHT22;3007;50.770;0.250;2023-03-11T14:13:06;8.60;96.50
5962;DHT22;3007;50.770;0.250;2023-03-11T14:15:45;8.60;99.90
5962;DHT22;3007;50.770;0.250;2023-03-11T14:18:35;8.70;90.90
5962;DHT22;3007;50.770;0.250;2023-03-11T14:21:05;8.70;71.70
5962;DHT22;3007;50.770;0.250;2023-03-11T14:23:35;8.60;76.30
5962;DHT22;3007;50.770;0.250;2023-03-11T14:26:07;8.60;74.50
5962;DHT22;3007;50.770;0.250;2023-03-11T14:28:37;8.60;90.50
5962;DHT22;3007;50.770;0.250;2023-03-11T14:31:05;8.70;91.50
5962;DHT22;3007;50.770;0.250;2023-03-11T14:33:34;8.70;87.70
5962;DHT22;3007;50.770;0.250;2023-03-11T14:36:03;8.70;89.80
5962;DHT22;3007;50.770;0.250;2023-03-11T14:38:32;8.70;78.30
5962;DHT22;3007;50.770;0.250;2023-03-11T14:41:01;8.60;64.50
5962;DHT22;3007;50.770;0.250;2023-03-11T14:43:32;8.60;66.10
5962;DHT22;3007;50.770;0.250;2023-03-11T14:46:01;8.50;77.40
5962;DHT22;3007;50.770;0.250;2023-03-11T14:48:31;8.50;82.90
5962;DHT22;3007;50.770;0.250;2023-03-11T14:51:01;8.50;98.40
5962;DHT22;3007;50.770;0.250;2023-03-11T14:53:33;8.60;80.60
5962;DHT22;3007;50.770;0.250;2023-03-11T14:56:06;8.60;99.90
5962;DHT22;3007;50.770;0.250;2023-03-11T14:58:35;8.60;99.90
5962;DHT22;3007;50.770;0.250;2023-03-11T15:01:09;8.60;91.00
5962;DHT22;3007;50.770;0.250;2023-03-11T15:03:40;8.60;90.20
5962;DHT22;3007;50.770;0.250;2023-03-11T15:06:13;8.50;96.70
5962;DHT22;3007;50.770;0.250;2023-03-11T15:08:45;8.50;98.80
5962;DHT22;3007;50.770;0.250;2023-03-11T15:11:20;8.50;99.80
5962;DHT22;3007;50.770;0.250;2023-03-11T15:13:49;8.50;99.90
5962;DHT22;3007;50.770;0.250;2023-03-11T15:16:29;8.50;99.90
5962;DHT22;3007;50.770;0.250;2023-03-11T15:19:00;8.50;99.90
5962;DHT22;3007;50.770;0.250;2023-03-11T15:21:28;8.60;99.90
5962;DHT22;3007;50.770;0.250;2023-03-11T15:24:00;8.50;99.90
5962;DHT22;3007;50.770;0.250;2023-03-11T15:26:31;8.50;99.90
5962;DHT22;3007;50.770;0.250;2023-03-11T15:29:00;8.40;99.90
5962;DHT22;3007;50.770;0.250;2023-03-11T15:31:33;8.50;99.90
5962;DHT22;3007;50.770;0.250;2023-03-11T15:34:25;8.50;99.90
5962;DHT22;3007;50.770;0.250;2023-03-11T15:37:03;8.50;99.90
5962;DHT22;3007;50.770;0.250;2023-03-11T15:39:42;8.50;99.90
5962;DHT22;3007;50.770;0.250;2023-03-11T15:42:14;8.50;99.90
5962;DHT22;3007;50.770;0.250;2023-03-11T15:44:48;8.50;99.90
5962;DHT22;3007;50.770;0.250;2023-03-11T15:47:21;8.50;99.90
5962;DHT22;3007;50.770;0.250;2023-03-11T15:49:49;8.50;99.90
5962;DHT22;3007;50.770;0.250;2023-03-11T15:52:17;8.50;99.90
5962;DHT22;3007;50.770;0.250;2023-03-11T15:54:45;8.50;99.90
5962;DHT22;3007;50.770;0.250;2023-03-11T15:57:20;8.50;99.90
5962;DHT22;3007;50.770;0.250;2023-03-11T15:59:47;8.50;99.90
5962;DHT22;3007;50.770;0.250;2023-03-11T16:02:20;8.40;99.90
5962;DHT22;3007;50.770;0.250;2023-03-11T16:04:47;8.40;99.90
5962;DHT22;3007;50.770;0.250;2023-03-11T16:07:14;8.40;99.90
5962;DHT22;3007;50.770;0.250;2023-03-11T16:09:42;8.40;99.90
5962;DHT22;3007;50.770;0.250;2023-03-11T16:12:15;8.30;99.90
5962;DHT22;3007;50.770;0.250;2023-03-11T16:14:45;8.30;99.90
5962;DHT22;3007;50.770;0.250;2023-03-11T16:17:15;8.20;99.90
5962;DHT22;3007;50.770;0.250;2023-03-11T16:19:43;8.20;99.90
5962;DHT22;3007;50.770;0.250;2023-03-11T16:22:15;8.20;99.90
5962;DHT22;3007;50.770;0.250;2023-03-11T16:24:45;8.20;99.90
5962;DHT22;3007;50.770;0.250;2023-03-11T16:27:14;8.10;99.90
5962;DHT22;3007;50.770;0.250;2023-03-11T16:29:42;8.10;99.90
5962;DHT22;3007;50.770;0.250;2023-03-11T16:32:09;8.00;99.90
5962;DHT22;3007;50.770;0.250;2023-03-11T16:34:36;8.00;99.90
5962;DHT22;3007;50.770;0.250;2023-03-11T16:37:04;8.00;99.90
5962;DHT22;3007;50.770;0.250;2023-03-11T16:39:31;7.90;99.90
5962;DHT22;3007;50.770;0.250;2023-03-11T16:41:59;7.80;99.90
5962;DHT22;3007;50.770;0.250;2023-03-11T16:44:26;7.80;99.90
5962;DHT22;3007;50.770;0.250;2023-03-11T16:46:54;7.80;99.90
5962;DHT22;3007;50.770;0.250;2023-03-11T16:49:21;7.80;99.90
5962;DHT22;3007;50.770;0.250;2023-03-11T16:51:48;7.80;99.90
5962;DHT22;3007;50.770;0.250;2023-03-11T16:54:15;7.80;99.90
5962;DHT22;3007;50.770;0.250;2023-03-11T16:56:42;7.80;99.90